createdAt,value
2019-02-21T00:02:23.849Z,4.73
2019-02-21T00:04:49.714Z,4.73
2019-02-21T00:07:15.641Z,4.68
2019-02-21T00:09:41.485Z,4.69
2019-02-21T00:12:07.303Z,4.71
2019-02-21T00:14:33.160Z,4.72
2019-02-21T00:16:59.100Z,4.71
2019-02-21T00:19:24.945Z,4.72
2019-02-21T00:21:50.793Z,4.72
2019-02-21T00:24:16.651Z,4.77
2019-02-21T00:26:44.254Z,4.75
2019-02-21T00:29:10.405Z,4.72
2019-02-21T00:31:36.254Z,4.69
2019-02-21T00:34:02.064Z,4.69
2019-02-21T00:36:28.015Z,4.65
2019-02-21T00:38:53.864Z,4.63
2019-02-21T00:41:19.706Z,4.65
2019-02-21T00:43:45.528Z,4.58
2019-02-21T00:46:11.933Z,4.57
2019-02-21T00:48:37.773Z,4.53
2019-02-21T00:51:03.614Z,4.52
2019-02-21T00:53:29.440Z,4.50
2019-02-21T00:55:55.512Z,4.48
2019-02-21T00:58:21.434Z,4.50
2019-02-21T01:00:47.389Z,4.48
2019-02-21T01:03:13.214Z,4.51
2019-02-21T01:05:39.269Z,4.49
2019-02-21T01:08:05.941Z,4.48
2019-02-21T01:10:31.820Z,4.46
2019-02-21T01:12:58.707Z,4.45
2019-02-21T01:15:24.603Z,4.45
2019-02-21T01:17:50.443Z,4.44
2019-02-21T01:20:16.392Z,4.41
2019-02-21T01:22:42.358Z,4.46
2019-02-21T01:25:08.192Z,4.49
2019-02-21T01:27:34.045Z,4.46
2019-02-21T01:29:59.877Z,4.44
2019-02-21T01:32:25.826Z,4.43
2019-02-21T01:34:51.641Z,4.47
2019-02-21T01:37:17.581Z,4.49
2019-02-21T01:39:43.404Z,4.50
2019-02-21T01:42:09.268Z,4.51
2019-02-21T01:44:35.124Z,4.52
2019-02-21T01:47:00.969Z,4.51
2019-02-21T01:49:26.789Z,4.51
2019-02-21T01:51:52.649Z,4.50
2019-02-21T01:54:18.506Z,4.52
2019-02-21T01:56:44.327Z,4.52
2019-02-21T01:59:10.165Z,4.49
2019-02-21T02:01:35.995Z,4.48
2019-02-21T02:04:01.856Z,4.45
2019-02-21T02:06:27.782Z,4.44
2019-02-21T02:08:53.780Z,4.49
2019-02-21T02:11:19.736Z,4.51
2019-02-21T02:13:45.584Z,4.47
2019-02-21T02:16:11.424Z,4.49
2019-02-21T02:18:37.280Z,4.52
2019-02-21T02:21:04.136Z,4.58
2019-02-21T02:23:29.976Z,4.64
2019-02-21T02:25:55.826Z,4.69
2019-02-21T02:28:21.675Z,4.81
2019-02-21T02:30:47.499Z,4.96
2019-02-21T02:33:13.319Z,5.10
2019-02-21T02:35:39.176Z,5.23
2019-02-21T02:38:04.973Z,5.37
2019-02-21T02:40:30.829Z,5.47
2019-02-21T02:42:56.647Z,5.59
2019-02-21T02:45:22.492Z,5.63
2019-02-21T02:47:48.330Z,5.69
2019-02-21T02:50:14.219Z,5.74
2019-02-21T02:52:40.074Z,5.76
2019-02-21T02:55:06.031Z,5.82
2019-02-21T02:57:31.869Z,5.87
2019-02-21T02:59:57.724Z,5.95
2019-02-21T03:02:24.126Z,5.98
2019-02-21T03:04:50.043Z,6.01
2019-02-21T03:07:15.842Z,6.02
2019-02-21T03:09:41.791Z,6.05
2019-02-21T03:12:07.608Z,6.09
2019-02-21T03:14:33.444Z,6.13
2019-02-21T03:16:59.278Z,6.11
2019-02-21T03:19:25.113Z,6.13
2019-02-21T03:21:50.965Z,6.14
2019-02-21T03:24:16.811Z,6.18
2019-02-21T03:26:42.640Z,6.25
2019-02-21T03:29:08.464Z,6.21
2019-02-21T03:31:52.652Z,6.27
2019-02-21T03:34:02.150Z,6.27
2019-02-21T03:36:28.025Z,6.27
2019-02-21T03:38:53.851Z,6.20
2019-02-21T03:41:19.695Z,6.14
2019-02-21T03:43:45.509Z,6.19
2019-02-21T03:46:11.453Z,6.20
2019-02-21T03:48:37.297Z,6.26
2019-02-21T03:51:03.112Z,6.27
2019-02-21T03:53:29.431Z,6.26
2019-02-21T03:58:31.057Z,6.33
2019-02-21T04:00:57.022Z,6.30
2019-02-21T04:03:22.964Z,6.28
2019-02-21T04:05:48.809Z,6.32
2019-02-21T04:08:14.696Z,6.33
2019-02-21T04:10:40.515Z,6.32
2019-02-21T04:13:06.352Z,6.31
2019-02-21T04:15:32.829Z,6.37
2019-02-21T04:17:58.691Z,6.41
2019-02-21T04:20:24.546Z,6.42
2019-02-21T04:22:50.395Z,6.42
2019-02-21T04:25:16.208Z,6.47
2019-02-21T04:27:42.126Z,6.47
2019-02-21T04:30:08.349Z,6.43
2019-02-21T04:32:34.182Z,6.47
2019-02-21T04:35:00.323Z,6.45
2019-02-21T04:37:26.332Z,6.45
2019-02-21T04:39:52.171Z,6.46
2019-02-21T04:42:18.209Z,6.45
2019-02-21T04:44:44.049Z,6.37
2019-02-21T04:47:09.866Z,6.29
2019-02-21T04:49:35.714Z,6.26
2019-02-21T04:52:01.518Z,6.20
2019-02-21T04:54:27.371Z,6.09
2019-02-21T04:56:53.194Z,5.95
2019-02-21T04:59:19.045Z,5.84
2019-02-21T05:01:44.863Z,5.76
2019-02-21T05:04:10.704Z,5.68
2019-02-21T05:06:36.539Z,5.60
2019-02-21T05:09:04.319Z,5.51
2019-02-21T05:11:30.134Z,5.42
2019-02-21T05:13:56.025Z,5.38
2019-02-21T05:16:21.876Z,5.33
2019-02-21T05:18:47.709Z,5.30
2019-02-21T05:21:13.578Z,5.25
2019-02-21T05:23:39.446Z,5.24
2019-02-21T05:26:06.229Z,5.20
2019-02-21T05:28:32.057Z,5.19
2019-02-21T05:30:59.786Z,5.19
2019-02-21T05:33:39.721Z,5.18
2019-02-21T05:36:07.506Z,5.17
2019-02-21T05:38:35.338Z,5.11
2019-02-21T05:41:06.092Z,5.09
2019-02-21T05:43:37.343Z,5.04
2019-02-21T05:46:08.245Z,5.02
2019-02-21T05:48:35.910Z,5.01
2019-02-21T05:51:06.198Z,4.97
2019-02-21T05:53:33.929Z,4.94
2019-02-21T05:56:16.710Z,4.93
2019-02-21T05:58:50.567Z,4.90
2019-02-21T06:01:21.085Z,4.89
2019-02-21T06:03:57.899Z,4.88
2019-02-21T06:06:25.656Z,4.84
2019-02-21T06:08:59.314Z,4.81
2019-02-21T06:11:34.931Z,4.80
2019-02-21T06:14:05.234Z,4.80
2019-02-21T06:16:35.826Z,4.79
2019-02-21T06:19:06.345Z,4.76
2019-02-21T06:21:42.701Z,4.74
2019-02-21T06:24:13.447Z,4.75
2019-02-21T06:26:57.875Z,4.78
2019-02-21T06:29:25.757Z,4.79
2019-02-21T06:31:51.909Z,4.87
2019-02-21T06:34:17.735Z,4.94
2019-02-21T06:36:43.561Z,4.99
2019-02-21T06:39:09.403Z,4.99
2019-02-21T06:41:35.336Z,4.97
2019-02-21T06:44:01.212Z,4.95
2019-02-21T06:46:27.046Z,4.92
2019-02-21T06:48:52.885Z,4.89
2019-02-21T06:51:18.700Z,4.86
2019-02-21T06:53:44.545Z,4.93
2019-02-21T06:56:10.406Z,4.95
2019-02-21T06:58:36.254Z,4.97
2019-02-21T07:01:02.040Z,5.02
2019-02-21T07:03:29.081Z,5.08
2019-02-21T07:05:55.663Z,5.10
2019-02-21T07:08:21.524Z,5.16
2019-02-21T07:10:47.378Z,5.23
2019-02-21T07:13:13.264Z,5.25
2019-02-21T07:15:39.115Z,5.40
2019-02-21T07:18:05.068Z,5.48
2019-02-21T07:20:31.056Z,5.58
2019-02-21T07:22:56.893Z,5.62
2019-02-21T07:25:39.654Z,5.68
2019-02-21T07:28:11.727Z,5.82
2019-02-21T07:30:33.592Z,5.98
2019-02-21T07:32:59.520Z,6.06
2019-02-21T07:35:25.473Z,6.14
2019-02-21T07:37:53.356Z,6.37
2019-02-21T07:40:20.357Z,6.42
2019-02-21T07:42:48.120Z,6.56
2019-02-21T07:45:14.386Z,6.63
2019-02-21T07:47:40.631Z,6.83
2019-02-21T07:50:07.416Z,7.01
2019-02-21T07:52:33.263Z,7.16
2019-02-21T07:55:02.056Z,7.28
2019-02-21T07:57:26.871Z,7.34
2019-02-21T07:59:52.774Z,7.28
2019-02-21T08:02:20.917Z,7.36
2019-02-21T08:04:46.514Z,7.31
2019-02-21T08:07:12.336Z,7.32
2019-02-21T08:09:38.160Z,7.51
2019-02-21T08:12:04.104Z,7.84
2019-02-21T08:14:29.940Z,7.99
2019-02-21T08:16:56.230Z,8.22
2019-02-21T08:19:22.231Z,8.37
2019-02-21T08:21:48.326Z,8.54
2019-02-21T08:24:14.417Z,8.89
2019-02-21T08:26:40.258Z,9.00
2019-02-21T08:29:06.361Z,9.17
2019-02-21T08:31:32.659Z,9.34
2019-02-21T08:34:04.406Z,9.42
2019-02-21T08:36:30.780Z,9.61
2019-02-21T08:38:56.603Z,9.33
2019-02-21T08:41:22.459Z,9.32
2019-02-21T08:43:48.279Z,9.46
2019-02-21T08:46:14.221Z,9.81
2019-02-21T08:48:40.590Z,9.94
2019-02-21T08:51:06.718Z,10.34
2019-02-21T08:53:32.563Z,10.49
2019-02-21T08:55:58.399Z,10.66
2019-02-21T08:58:24.249Z,10.65
2019-02-21T09:00:50.098Z,10.74
2019-02-21T09:03:18.016Z,10.50
2019-02-21T09:05:43.701Z,10.38
2019-02-21T09:08:09.556Z,10.32
2019-02-21T09:10:35.596Z,10.37
2019-02-21T09:13:01.447Z,10.31
2019-02-21T09:15:27.330Z,10.27
2019-02-21T09:17:54.228Z,10.36
2019-02-21T09:20:20.436Z,10.49
2019-02-21T09:22:46.289Z,10.68
2019-02-21T09:25:13.231Z,10.76
2019-02-21T09:27:39.154Z,10.63
2019-02-21T09:30:14.837Z,10.64
2019-02-21T09:32:42.020Z,10.78
2019-02-21T09:35:08.451Z,10.76
2019-02-21T09:37:34.370Z,10.62
2019-02-21T09:40:00.330Z,10.69
2019-02-21T09:42:26.144Z,10.81
2019-02-21T09:44:51.998Z,10.99
2019-02-21T09:47:17.817Z,11.09
2019-02-21T09:49:43.773Z,11.24
2019-02-21T09:52:09.694Z,11.72
2019-02-21T09:54:35.557Z,11.70
2019-02-21T09:57:12.795Z,11.68
2019-02-21T09:59:31.037Z,11.65
2019-02-21T10:01:57.694Z,11.17
2019-02-21T10:04:31.922Z,11.61
2019-02-21T10:06:51.457Z,12.07
2019-02-21T10:09:17.290Z,12.60
2019-02-21T10:11:43.105Z,13.12
2019-02-21T10:14:08.936Z,13.68
2019-02-21T10:16:34.776Z,14.14
2019-02-21T10:19:00.595Z,14.56
2019-02-21T10:21:26.495Z,14.39
2019-02-21T10:23:52.310Z,14.17
2019-02-21T10:26:18.168Z,14.30
2019-02-21T10:28:45.241Z,14.27
2019-02-21T10:31:11.524Z,14.17
2019-02-21T10:33:46.577Z,14.73
2019-02-21T10:36:05.229Z,14.27
2019-02-21T10:38:31.050Z,13.97
2019-02-21T10:40:56.945Z,13.34
2019-02-21T10:43:22.779Z,13.34
2019-02-21T10:45:48.584Z,12.99
2019-02-21T10:48:14.477Z,13.23
2019-02-21T10:50:40.352Z,12.94
2019-02-21T10:53:06.195Z,12.99
2019-02-21T10:55:32.020Z,12.87
2019-02-21T10:57:58.246Z,13.04
2019-02-21T11:00:28.794Z,13.45
2019-02-21T11:02:54.753Z,14.96
2019-02-21T11:05:20.681Z,19.04
2019-02-21T11:07:46.627Z,20.88
2019-02-21T11:10:18.928Z,23.13
2019-02-21T11:12:43.852Z,22.82
2019-02-21T11:15:12.192Z,22.89
2019-02-21T11:17:38.039Z,21.46
2019-02-21T11:20:07.689Z,22.94
2019-02-21T11:22:33.537Z,23.19
2019-02-21T11:24:59.372Z,22.65
2019-02-21T11:27:25.215Z,23.47
2019-02-21T11:29:51.053Z,23.70
2019-02-21T11:32:16.900Z,24.02
2019-02-21T11:34:42.733Z,22.91
2019-02-21T11:37:08.648Z,21.44
2019-02-21T11:39:34.498Z,20.91
2019-02-21T11:42:00.648Z,21.38
2019-02-21T11:44:26.582Z,21.39
2019-02-21T11:46:52.401Z,20.35
2019-02-21T11:49:18.266Z,21.02
2019-02-21T11:51:44.089Z,22.34
2019-02-21T11:54:09.946Z,22.83
2019-02-21T11:56:35.754Z,22.44
2019-02-21T11:59:01.606Z,22.75
2019-02-21T12:01:27.467Z,23.03
2019-02-21T12:03:53.675Z,22.40
2019-02-21T12:06:22.653Z,21.33
2019-02-21T12:08:48.615Z,21.55
2019-02-21T12:11:14.455Z,22.13
2019-02-21T12:13:40.281Z,22.49
2019-02-21T12:16:06.215Z,20.16
2019-02-21T12:18:32.098Z,23.18
2019-02-21T12:20:58.068Z,22.12
2019-02-21T12:23:23.891Z,22.84
2019-02-21T12:25:49.848Z,20.60
2019-02-21T12:28:15.822Z,19.77
2019-02-21T12:30:41.688Z,19.97
2019-02-21T12:33:08.532Z,19.87
2019-02-21T12:35:34.370Z,20.61
2019-02-21T12:38:00.210Z,21.02
2019-02-21T12:40:26.085Z,22.78
2019-02-21T12:42:52.022Z,24.45
2019-02-21T12:45:20.175Z,25.62
2019-02-21T12:47:52.765Z,24.43
2019-02-21T12:50:14.428Z,23.88
2019-02-21T12:52:40.380Z,23.94
2019-02-21T12:55:08.235Z,22.41
2019-02-21T12:57:34.092Z,20.52
2019-02-21T12:59:59.942Z,19.43
2019-02-21T13:02:25.817Z,19.51
2019-02-21T13:04:51.669Z,19.49
2019-02-21T13:07:17.535Z,21.72
2019-02-21T13:09:43.383Z,22.80
2019-02-21T13:12:09.333Z,22.06
2019-02-21T13:14:35.280Z,22.26
2019-02-21T13:17:01.131Z,21.57
2019-02-21T13:19:26.971Z,19.79
2019-02-21T13:21:52.939Z,19.48
2019-02-21T13:24:18.762Z,18.57
2019-02-21T13:26:44.651Z,17.57
2019-02-21T13:29:10.485Z,17.62
2019-02-21T13:31:36.334Z,17.58
2019-02-21T13:34:02.404Z,17.38
2019-02-21T13:36:28.268Z,16.84
2019-02-21T13:38:54.368Z,16.63
2019-02-21T13:41:20.203Z,16.10
2019-02-21T13:43:46.070Z,15.48
2019-02-21T13:46:11.902Z,15.38
2019-02-21T13:48:37.773Z,14.82
2019-02-21T13:51:03.605Z,14.70
2019-02-21T13:53:29.498Z,14.57
2019-02-21T13:55:55.445Z,14.53
2019-02-21T13:58:21.317Z,14.88
2019-02-21T14:00:47.180Z,14.97
2019-02-21T14:03:13.052Z,14.76
2019-02-21T14:05:38.869Z,14.97
2019-02-21T14:08:05.168Z,15.08
2019-02-21T14:10:31.117Z,15.73
2019-02-21T14:12:56.933Z,15.95
2019-02-21T14:15:25.699Z,16.09
2019-02-21T14:17:51.504Z,15.87
2019-02-21T14:20:17.406Z,15.62
2019-02-21T14:22:43.245Z,15.62
2019-02-21T14:25:09.710Z,15.73
2019-02-21T14:27:35.702Z,15.32
2019-02-21T14:30:03.467Z,15.13
2019-02-21T14:32:29.335Z,14.78
2019-02-21T14:34:55.208Z,14.53
2019-02-21T14:37:21.061Z,14.48
2019-02-21T14:39:46.878Z,14.26
2019-02-21T14:42:12.870Z,14.41
2019-02-21T14:44:38.725Z,14.37
2019-02-21T14:47:04.541Z,14.41
2019-02-21T14:49:30.492Z,14.34
2019-02-21T14:51:56.332Z,14.54
2019-02-21T14:54:22.176Z,14.48
2019-02-21T14:56:48.080Z,14.97
2019-02-21T14:59:13.890Z,15.44
2019-02-21T15:01:39.763Z,15.43
2019-02-21T15:04:05.619Z,15.43
2019-02-21T15:06:31.628Z,14.93
2019-02-21T15:08:57.485Z,15.12
2019-02-21T15:11:23.310Z,14.94
2019-02-21T15:13:49.143Z,14.94
2019-02-21T15:16:15.081Z,14.98
2019-02-21T15:18:40.930Z,15.13
2019-02-21T15:21:06.830Z,15.01
2019-02-21T15:23:32.650Z,14.86
2019-02-21T15:25:58.538Z,14.57
2019-02-21T15:28:24.359Z,14.53
2019-02-21T15:30:50.244Z,14.23
2019-02-21T15:33:16.097Z,14.00
2019-02-21T15:35:41.920Z,13.90
2019-02-21T15:38:17.172Z,13.88
2019-02-21T15:40:35.497Z,13.83
2019-02-21T15:43:01.461Z,13.93
2019-02-21T15:45:28.291Z,13.90
2019-02-21T15:47:54.331Z,13.82
2019-02-21T15:50:20.484Z,13.84
2019-02-21T15:52:46.866Z,13.75
2019-02-21T15:55:15.582Z,13.68
2019-02-21T15:57:41.571Z,13.67
2019-02-21T16:00:13.597Z,13.75
2019-02-21T16:02:39.480Z,13.65
2019-02-21T16:05:06.027Z,13.81
2019-02-21T16:07:31.852Z,13.84
2019-02-21T16:09:57.710Z,13.48
2019-02-21T16:12:24.166Z,13.45
2019-02-21T16:14:50.383Z,13.44
2019-02-21T16:17:16.396Z,13.44
2019-02-21T16:19:42.278Z,13.40
2019-02-21T16:22:08.162Z,13.33
2019-02-21T16:24:34.063Z,13.33
2019-02-21T16:26:59.921Z,13.27
2019-02-21T16:29:25.999Z,13.26
2019-02-21T16:31:52.025Z,13.14
2019-02-21T16:34:18.400Z,13.10
2019-02-21T16:36:44.232Z,13.05
2019-02-21T16:39:10.299Z,13.06
2019-02-21T16:41:36.787Z,12.96
2019-02-21T16:44:02.968Z,12.91
2019-02-21T16:46:28.805Z,12.86
2019-02-21T16:48:54.764Z,12.84
2019-02-21T16:51:22.226Z,12.86
2019-02-21T16:53:48.314Z,12.78
2019-02-21T16:56:14.193Z,12.74
2019-02-21T16:58:42.695Z,12.68
2019-02-21T17:01:08.017Z,12.63
2019-02-21T17:03:33.885Z,12.59
2019-02-21T17:05:59.752Z,12.60
2019-02-21T17:08:25.701Z,12.58
2019-02-21T17:10:51.573Z,12.55
2019-02-21T17:13:17.426Z,12.53
2019-02-21T17:15:43.382Z,12.50
2019-02-21T17:18:09.324Z,12.45
2019-02-21T17:20:35.235Z,12.46
2019-02-21T17:23:01.062Z,12.45
2019-02-21T17:25:26.948Z,12.45
2019-02-21T17:27:52.811Z,12.39
2019-02-21T17:30:19.449Z,12.37
2019-02-21T17:32:45.840Z,12.35
2019-02-21T17:35:12.795Z,12.32
2019-02-21T17:37:38.642Z,12.29
2019-02-21T17:40:08.348Z,12.26
2019-02-21T17:42:34.179Z,12.19
2019-02-21T17:44:59.999Z,12.23
2019-02-21T17:47:25.891Z,12.23
2019-02-21T17:49:51.735Z,12.21
2019-02-21T17:52:17.698Z,12.18
2019-02-21T17:54:43.546Z,12.22
2019-02-21T17:57:09.508Z,12.22
2019-02-21T17:59:35.355Z,12.17
2019-02-21T18:02:01.242Z,12.19
2019-02-21T18:04:27.197Z,12.16
2019-02-21T18:06:53.146Z,12.18
2019-02-21T18:09:19.127Z,12.13
2019-02-21T18:11:45.048Z,12.13
2019-02-21T18:14:10.872Z,12.13
2019-02-21T18:16:36.812Z,12.11
2019-02-21T18:19:02.693Z,12.06
2019-02-21T18:21:28.895Z,12.00
2019-02-21T18:23:54.777Z,12.01
2019-02-21T18:26:20.731Z,11.98
2019-02-21T18:28:46.588Z,11.94
2019-02-21T18:31:12.436Z,11.94
2019-02-21T18:33:38.516Z,11.85
2019-02-21T18:36:04.441Z,11.81
2019-02-21T18:38:30.408Z,11.71
2019-02-21T18:40:56.291Z,11.63
2019-02-21T18:43:22.189Z,11.63
2019-02-21T18:45:48.440Z,11.60
2019-02-21T18:48:14.404Z,11.54
2019-02-21T18:50:40.363Z,11.58
2019-02-21T18:53:06.205Z,11.56
2019-02-21T18:55:32.080Z,11.57
2019-02-21T18:57:57.925Z,11.54
2019-02-21T19:00:25.521Z,11.49
2019-02-21T19:02:51.547Z,11.44
2019-02-21T19:05:18.723Z,11.47
2019-02-21T19:07:44.564Z,11.31
2019-02-21T19:10:14.282Z,11.38
2019-02-21T19:12:40.158Z,11.39
2019-02-21T19:15:08.420Z,11.37
2019-02-21T19:17:34.335Z,11.37
2019-02-21T19:20:00.790Z,11.37
2019-02-21T19:22:26.677Z,11.24
2019-02-21T19:24:52.867Z,11.34
2019-02-21T19:27:18.740Z,11.36
2019-02-21T19:29:44.647Z,11.35
2019-02-21T19:32:10.495Z,11.35
2019-02-21T19:34:36.441Z,11.37
2019-02-21T19:37:02.407Z,11.33
2019-02-21T19:39:28.269Z,11.35
2019-02-21T19:41:54.394Z,11.25
2019-02-21T19:44:20.246Z,11.24
2019-02-21T19:46:46.226Z,11.32
2019-02-21T19:49:12.109Z,11.32
2019-02-21T19:51:38.039Z,11.32
2019-02-21T19:54:03.977Z,11.30
2019-02-21T19:56:29.859Z,11.29
2019-02-21T19:58:55.816Z,11.29
2019-02-21T20:01:21.951Z,11.28
2019-02-21T20:03:47.831Z,11.26
2019-02-21T20:06:13.757Z,11.23
2019-02-21T20:08:39.773Z,11.17
2019-02-21T20:11:05.749Z,11.16
2019-02-21T20:13:31.717Z,11.15
2019-02-21T20:15:57.672Z,11.17
2019-02-21T20:18:23.572Z,11.20
2019-02-21T20:20:49.556Z,11.19
2019-02-21T20:23:15.846Z,11.14
2019-02-21T20:25:41.797Z,11.13
2019-02-21T20:28:08.073Z,11.13
2019-02-21T20:30:33.903Z,11.10
2019-02-21T20:32:59.803Z,11.08
2019-02-21T20:35:25.808Z,11.08
2019-02-21T20:37:51.657Z,11.07
2019-02-21T20:40:17.608Z,11.07
2019-02-21T20:42:43.663Z,11.08
2019-02-21T20:45:10.949Z,11.09
2019-02-21T20:47:36.787Z,11.08
2019-02-21T20:50:05.424Z,11.07
2019-02-21T20:52:31.401Z,11.09
2019-02-21T20:54:57.455Z,11.06
2019-02-21T20:57:23.377Z,11.06
2019-02-21T20:59:49.387Z,11.04
2019-02-21T21:02:15.360Z,11.03
2019-02-21T21:04:41.508Z,11.03
2019-02-21T21:07:07.550Z,11.03
2019-02-21T21:09:33.425Z,11.03
2019-02-21T21:11:59.306Z,11.03
2019-02-21T21:14:25.273Z,11.02
2019-02-21T21:16:51.200Z,11.03
2019-02-21T21:19:17.185Z,11.05
2019-02-21T21:21:43.141Z,11.01
2019-02-21T21:24:08.995Z,11.01
2019-02-21T21:26:35.014Z,11.06
2019-02-21T21:29:00.917Z,11.06
2019-02-21T21:31:26.865Z,11.09
2019-02-21T21:33:52.830Z,11.05
2019-02-21T21:36:18.822Z,11.08
2019-02-21T21:38:53.728Z,11.12
2019-02-21T21:41:12.781Z,11.12
2019-02-21T21:43:38.705Z,11.11
2019-02-21T21:46:04.693Z,11.12
2019-02-21T21:48:30.636Z,11.08
2019-02-21T21:50:56.503Z,11.04
2019-02-21T21:53:22.459Z,11.04
2019-02-21T21:55:48.340Z,11.06
2019-02-21T21:58:14.279Z,11.06
2019-02-21T22:00:40.142Z,11.06
2019-02-21T22:03:06.117Z,11.06
2019-02-21T22:05:31.973Z,11.06
2019-02-21T22:07:57.829Z,10.96
2019-02-21T22:10:23.770Z,10.95
2019-02-21T22:12:49.633Z,10.91
2019-02-21T22:15:20.147Z,10.91
2019-02-21T22:17:46.035Z,10.90
2019-02-21T22:20:12.585Z,10.76
2019-02-21T22:22:38.458Z,10.77
2019-02-21T22:25:07.551Z,10.75
2019-02-21T22:27:33.389Z,10.75
2019-02-21T22:29:59.226Z,10.70
2019-02-21T22:32:25.172Z,10.71
2019-02-21T22:34:51.117Z,10.68
2019-02-21T22:37:17.046Z,10.68
2019-02-21T22:39:42.928Z,10.69
2019-02-21T22:42:08.774Z,10.60
2019-02-21T22:44:34.653Z,10.59
2019-02-21T22:47:00.494Z,10.53
2019-02-21T22:49:26.443Z,10.54
2019-02-21T22:51:52.255Z,10.54
2019-02-21T22:54:18.221Z,10.55
2019-02-21T22:56:44.143Z,10.54
2019-02-21T22:59:09.992Z,10.47
2019-02-21T23:01:35.913Z,10.44
2019-02-21T23:04:08.343Z,10.40
2019-02-21T23:06:47.103Z,10.35
2019-02-21T23:09:26.941Z,10.21
2019-02-21T23:11:46.235Z,10.23
2019-02-21T23:14:12.183Z,10.22
2019-02-21T23:16:38.129Z,10.16
2019-02-21T23:19:04.006Z,10.19
2019-02-21T23:21:29.914Z,10.17
2019-02-21T23:23:55.796Z,10.20
2019-02-21T23:26:21.608Z,10.24
2019-02-21T23:28:47.436Z,10.25
2019-02-21T23:31:13.382Z,10.24
2019-02-21T23:33:53.336Z,10.26
2019-02-21T23:36:19.184Z,10.28
2019-02-21T23:38:45.083Z,10.31
2019-02-21T23:41:11.065Z,10.27
2019-02-21T23:43:37.000Z,10.22
2019-02-21T23:46:02.954Z,10.16
2019-02-21T23:48:28.798Z,10.14
2019-02-21T23:50:54.645Z,10.13
2019-02-21T23:53:20.465Z,10.16
2019-02-21T23:55:46.326Z,10.15
2019-02-21T23:58:12.155Z,10.04
